Time;durP1;ratioP1;P1;durP2;ratioP2;P2;SDS_P1;SDS_P2;PMS_P1;PMS_P2;Temp;Humidity;BMP_temperature;BMP_pressure;BME280_temperature;BME280_humidity;BME280_pressure;Samples;Min_cycle;Max_cycle;Signal;HPM_P1;HPM_P2
2023/05/06 00:00:05;;;;;;;;;;;;;;;;;;4357935;32;19946;-69
2023/05/06 00:02:30;;;;;;;;;;;;;;;;;;4357923;32;20349;-70
2023/05/06 00:04:55;;;;;;;;;;;;;;;;;;4361770;32;19951;-69
2023/05/06 00:07:20;;;;;;;;;;;;;;;;;;4360599;32;20284;-68
2023/05/06 00:09:45;;;;;;;;;;;;;;;;;;4363033;32;19946;-69
2023/05/06 00:12:11;;;;;;;;;;;;;;;;;;4362826;32;19977;-69
2023/05/06 00:14:36;;;;;;;;;;;;;;;;;;4361483;32;20267;-69
2023/05/06 00:17:01;;;;;;;;;;;;;;;;;;4369068;32;20017;-70
2023/05/06 00:19:26;;;;;;;;;;;;;;;;;;4378047;32;19957;-69
2023/05/06 00:21:51;;;;;;;;;;;;;;;;;;4376883;32;19934;-70
2023/05/06 00:24:16;;;;;;;;;;;;;;;;;;4374820;32;19942;-69
2023/05/06 00:26:41;;;;;;;;;;;;;;;;;;4375907;32;19938;-69
2023/05/06 00:29:06;;;;;;;;;;;;;;;;;;4375251;32;19938;-69
2023/05/06 00:31:31;;;;;;;;;;;;;;;;;;4368420;32;20304;-69
2023/05/06 00:33:57;;;;;;;;;;;;;;;;;;4362686;32;19935;-69
2023/05/06 00:36:22;;;;;;;;;;;;;;;;;;4361311;32;19986;-69
2023/05/06 00:38:47;;;;;;;;;;;;;;;;;;4347634;33;19950;-69
2023/05/06 00:41:12;;;;;;;;;;;;;;;;;;4361154;33;19938;-69
2023/05/06 00:43:37;;;;;;;;;;;;;;;;;;4361749;32;19949;-69
2023/05/06 00:46:02;;;;;;;;;;;;;;;;;;4362047;32;19942;-70
2023/05/06 00:48:27;;;;;;;;;;;;;;;;;;4361466;32;20328;-69
2023/05/06 00:50:52;;;;;;;;;;;;;;;;;;4360329;32;19938;-69
2023/05/06 00:53:17;;;;;;;;;;;;;;;;;;4361614;32;19938;-68
2023/05/06 00:55:42;;;;;;;;;;;;;;;;;;4359758;32;19953;-70
2023/05/06 00:58:07;;;;;;;;;;;;;;;;;;4361096;32;19934;-69
2023/05/06 01:00:33;;;;;;;;;;;;;;;;;;4362522;32;19939;-69
2023/05/06 01:02:58;;;;;;;;;;;;;;;;;;4349649;32;19953;-69
2023/05/06 01:05:23;;;;;;;;;;;;;;;;;;4346899;33;19939;-70
2023/05/06 01:07:48;;;;;;;;;;;;;;;;;;4350566;33;19938;-69
2023/05/06 01:10:17;;;;;;;;;;;;;;;;;;4360393;32;19934;-70
2023/05/06 01:12:42;;;;;;;;;;;;;;;;;;4362166;32;19963;-70
2023/05/06 01:15:08;;;;;;;;;;;;;;;;;;4362734;32;19958;-71
2023/05/06 01:17:33;;;;;;;;;;;;;;;;;;4375878;32;19958;-69
2023/05/06 01:19:58;;;;;;;;;;;;;;;;;;4375324;32;19939;-68
2023/05/06 01:22:23;;;;;;;;;;;;;;;;;;4376693;32;20315;-70
2023/05/06 01:24:48;;;;;;;;;;;;;;;;;;4376436;32;19953;-69
2023/05/06 01:27:15;;;;;;;;;;;;;;;;;;4374404;32;19949;-69
2023/05/06 01:29:40;;;;;;;;;;;;;;;;;;4374047;32;20383;-69
2023/05/06 01:32:06;;;;;;;;;;;;;;;;;;4363147;32;19964;-69
2023/05/06 01:34:31;;;;;;;;;;;;;;;;;;4360254;32;19949;-69
2023/05/06 01:36:56;;;;;;;;;;;;;;;;;;4359080;33;19950;-69
2023/05/06 01:39:21;;;;;;;;;;;;;;;;;;4357387;32;20395;-69
2023/05/06 01:41:47;;;;;;;;;;;;;;;;;;4344412;33;20358;-71
2023/05/06 01:44:12;;;;;;;;;;;;;;;;;;4347256;32;19942;-69
2023/05/06 01:46:37;;;;;;;;;;;;;;;;;;4370872;32;19977;-69
2023/05/06 01:49:02;;;;;;;;;;;;;;;;;;4362996;32;19972;-67
2023/05/06 01:51:27;;;;;;;;;;;;;;;;;;4360320;32;19951;-68
2023/05/06 01:53:53;;;;;;;;;;;;;;;;;;4362154;32;19969;-68
2023/05/06 01:56:18;;;;;;;;;;;;;;;;;;4361663;32;20301;-69
2023/05/06 01:58:43;;;;;;;;;;;;;;;;;;4359761;33;19942;-68
2023/05/06 02:01:08;;;;;;;;;;;;;;;;;;4360194;33;20033;-68
2023/05/06 02:03:34;;;;;;;;;;;;;;;;;;4358500;33;20370;-69
2023/05/06 02:05:59;;;;;;;;;;;;;;;;;;4361537;33;20084;-68
2023/05/06 02:08:24;;;;;;;;;;;;;;;;;;4361260;33;19949;-68
2023/05/06 02:10:49;;;;;;;;;;;;;;;;;;4359845;33;20335;-68
2023/05/06 02:13:14;;;;;;;;;;;;;;;;;;4360263;33;19934;-67
2023/05/06 02:15:39;;;;;;;;;;;;;;;;;;4357965;32;20034;-68
2023/05/06 02:18:04;;;;;;;;;;;;;;;;;;4364884;32;19939;-68
2023/05/06 02:20:30;;;;;;;;;;;;;;;;;;4363068;33;19977;-68
2023/05/06 02:22:55;;;;;;;;;;;;;;;;;;4364408;32;20194;-68
2023/05/06 02:25:20;;;;;;;;;;;;;;;;;;4363244;32;20324;-68
2023/05/06 02:27:45;;;;;;;;;;;;;;;;;;4363287;32;19942;-68
2023/05/06 02:30:10;;;;;;;;;;;;;;;;;;4364109;32;19970;-69
2023/05/06 02:32:35;;;;;;;;;;;;;;;;;;4364369;32;19945;-69
2023/05/06 02:35:01;;;;;;;;;;;;;;;;;;4349368;33;19990;-69
2023/05/06 02:37:26;;;;;;;;;;;;;;;;;;4363707;32;19935;-69
2023/05/06 02:39:51;;;;;;;;;;;;;;;;;;4362768;33;19997;-69
2023/05/06 02:42:16;;;;;;;;;;;;;;;;;;4362365;33;20340;-70
2023/05/06 02:44:41;;;;;;;;;;;;;;;;;;4363783;32;20368;-69
2023/05/06 02:47:06;;;;;;;;;;;;;;;;;;4363796;32;19986;-69
2023/05/06 02:49:31;;;;;;;;;;;;;;;;;;4362158;32;20335;-69
2023/05/06 02:51:56;;;;;;;;;;;;;;;;;;4360621;32;19950;-69
2023/05/06 02:54:21;;;;;;;;;;;;;;;;;;4362234;32;20304;-69
2023/05/06 02:56:46;;;;;;;;;;;;;;;;;;4364073;32;20000;-69
2023/05/06 02:59:12;;;;;;;;;;;;;;;;;;4362225;32;19942;-68
2023/05/06 03:01:37;;;;;;;;;;;;;;;;;;4363218;32;20355;-70
2023/05/06 03:04:02;;;;;;;;;;;;;;;;;;4359473;32;19973;-69
2023/05/06 03:06:27;;;;;;;;;;;;;;;;;;4362234;32;19953;-69
2023/05/06 03:08:52;;;;;;;;;;;;;;;;;;4362542;32;19950;-69
2023/05/06 03:11:17;;;;;;;;;;;;;;;;;;4362159;32;19947;-68
2023/05/06 03:13:43;;;;;;;;;;;;;;;;;;4345497;33;20292;-70
2023/05/06 03:16:08;;;;;;;;;;;;;;;;;;4356392;32;20337;-69
2023/05/06 03:18:33;;;;;;;;;;;;;;;;;;4354474;32;20383;-69
2023/05/06 03:20:58;;;;;;;;;;;;;;;;;;4355789;32;20009;-69
2023/05/06 03:23:23;;;;;;;;;;;;;;;;;;4362266;32;19938;-69
2023/05/06 03:25:48;;;;;;;;;;;;;;;;;;4363747;32;19994;-68
2023/05/06 03:28:13;;;;;;;;;;;;;;;;;;4347907;33;19957;-68
2023/05/06 03:30:38;;;;;;;;;;;;;;;;;;4349837;32;19942;-70
2023/05/06 03:33:03;;;;;;;;;;;;;;;;;;4359491;32;19949;-69
2023/05/06 03:35:28;;;;;;;;;;;;;;;;;;4361842;32;19938;-69
2023/05/06 03:37:54;;;;;;;;;;;;;;;;;;4363863;32;19973;-69
2023/05/06 03:40:19;;;;;;;;;;;;;;;;;;4362642;32;19935;-68
2023/05/06 03:42:44;;;;;;;;;;;;;;;;;;4346432;33;19977;-69
2023/05/06 03:45:10;;;;;;;;;;;;;;;;;;4348506;33;19965;-68
2023/05/06 03:47:35;;;;;;;;;;;;;;;;;;4361642;32;20336;-68
2023/05/06 03:50:00;;;;;;;;;;;;;;;;;;4363500;32;19966;-68
2023/05/06 03:52:25;;;;;;;;;;;;;;;;;;4362768;32;19998;-68
2023/05/06 03:54:50;;;;;;;;;;;;;;;;;;4348753;33;19939;-68
2023/05/06 03:57:15;;;;;;;;;;;;;;;;;;4363039;32;19942;-68
2023/05/06 03:59:40;;;;;;;;;;;;;;;;;;4361858;32;19980;-68
2023/05/06 04:02:05;;;;;;;;;;;;;;;;;;4347715;32;19966;-68
2023/05/06 04:04:31;;;;;;;;;;;;;;;;;;4361031;32;20328;-68
2023/05/06 04:06:56;;;;;;;;;;;;;;;;;;4356171;32;20562;-70
2023/05/06 04:09:21;;;;;;;;;;;;;;;;;;4357811;32;20350;-69
2023/05/06 04:11:46;;;;;;;;;;;;;;;;;;4347547;33;19957;-69
2023/05/06 04:14:11;;;;;;;;;;;;;;;;;;4361385;32;20301;-69
2023/05/06 04:16:36;;;;;;;;;;;;;;;;;;4348881;33;20006;-69
2023/05/06 04:19:02;;;;;;;;;;;;;;;;;;4359798;33;19942;-68
2023/05/06 04:21:28;;;;;;;;;;;;;;;;;;4361306;33;19998;-69
2023/05/06 04:23:53;;;;;;;;;;;;;;;;;;4361301;32;20328;-68
2023/05/06 04:26:18;;;;;;;;;;;;;;;;;;4359832;32;20315;-69
2023/05/06 04:28:43;;;;;;;;;;;;;;;;;;4362703;32;20292;-68
2023/05/06 04:31:09;;;;;;;;;;;;;;;;;;4360079;32;19938;-68
2023/05/06 04:33:34;;;;;;;;;;;;;;;;;;4361826;32;19934;-68
2023/05/06 04:35:59;;;;;;;;;;;;;;;;;;4362370;32;20329;-69
2023/05/06 04:38:29;;;;;;;;;;;;;;;;;;4362972;32;19938;-69
2023/05/06 04:40:54;;;;;;;;;;;;;;;;;;4375310;32;19977;-69
2023/05/06 04:43:19;;;;;;;;;;;;;;;;;;4375363;32;20377;-69
2023/05/06 04:45:48;;;;;;;;;;;;;;;;;;4377334;32;19930;-69
2023/05/06 04:48:13;;;;;;;;;;;;;;;;;;4375258;32;19972;-69
2023/05/06 04:50:38;;;;;;;;;;;;;;;;;;4368197;32;19988;-68
2023/05/06 04:53:03;;;;;;;;;;;;;;;;;;4358265;32;19990;-68
2023/05/06 04:55:28;;;;;;;;;;;;;;;;;;4346927;33;20033;-69
2023/05/06 04:59:35;;;;;;;;;;;;;;;;;;4461041;32;19941;-69
2023/05/06 05:02:00;;;;;;;;;;;;;;;;;;4449080;32;19952;-67
2023/05/06 05:04:25;;;;;;;;;;;;;;;;;;4449609;32;19960;-71
2023/05/06 05:06:50;;;;;;;;;;;;;;;;;;4450091;32;19945;-69
2023/05/06 05:09:16;;;;;;;;;;;;;;;;;;4450486;32;19949;-69
2023/05/06 05:11:41;;;;;;;;;;;;;;;;;;4448647;32;20432;-69
2023/05/06 05:14:06;;;;;;;;;;;;;;;;;;4450113;32;19960;-69
2023/05/06 05:16:31;;;;;;;;;;;;;;;;;;4446714;32;19993;-69
2023/05/06 05:18:56;;;;;;;;;;;;;;;;;;4447503;32;19971;-69
2023/05/06 05:21:21;;;;;;;;;;;;;;;;;;4448113;32;20314;-69
2023/05/06 05:23:46;;;;;;;;;;;;;;;;;;4449740;32;19941;-69
2023/05/06 05:26:11;;;;;;;;;;;;;;;;;;4435649;32;19946;-69
2023/05/06 05:28:37;;;;;;;;;;;;;;;;;;4443889;32;20051;-69
2023/05/06 05:31:02;;;;;;;;;;;;;;;;;;4450596;32;19941;-69
2023/05/06 05:33:28;;;;;;;;;;;;;;;;;;4436012;32;20140;-70
2023/05/06 05:35:53;;;;;;;;;;;;;;;;;;4433025;32;19945;-70
2023/05/06 05:38:18;;;;;;;;;;;;;;;;;;4432496;32;19969;-69
2023/05/06 05:40:43;;;;;;;;;;;;;;;;;;4432697;32;19942;-70
2023/05/06 05:43:08;;;;;;;;;;;;;;;;;;4441212;32;20010;-70
2023/05/06 05:45:33;;;;;;;;;;;;;;;;;;4446449;32;20379;-70
2023/05/06 05:47:58;;;;;;;;;;;;;;;;;;4440734;32;19995;-70
2023/05/06 05:50:24;;;;;;;;;;;;;;;;;;4429254;32;19942;-69
2023/05/06 05:52:50;;;;;;;;;;;;;;;;;;4418995;32;19942;-70
2023/05/06 05:55:15;;;;;;;;;;;;;;;;;;4417326;32;19949;-70
2023/05/06 05:57:40;;;;;;;;;;;;;;;;;;4403053;32;19942;-69
2023/05/06 06:00:05;;;;;;;;;;;;;;;;;;4418779;32;20038;-69
2023/05/06 06:02:30;;;;;;;;;;;;;;;;;;4425252;32;19978;-69
2023/05/06 06:04:56;;;;;;;;;;;;;;;;;;4432596;32;19973;-69
2023/05/06 06:07:21;;;;;;;;;;;;;;;;;;4433677;32;20327;-70
2023/05/06 06:09:47;;;;;;;;;;;;;;;;;;4428213;32;19954;-69
2023/05/06 06:12:13;;;;;;;;;;;;;;;;;;4423098;32;20286;-69
2023/05/06 06:14:38;;;;;;;;;;;;;;;;;;4422318;32;19977;-69
2023/05/06 06:17:03;;;;;;;;;;;;;;;;;;4423410;32;19938;-70
2023/05/06 06:19:29;;;;;;;;;;;;;;;;;;4418268;32;20332;-69
2023/05/06 06:21:54;;;;;;;;;;;;;;;;;;4421752;32;20049;-69
2023/05/06 06:24:19;;;;;;;;;;;;;;;;;;4408399;32;19946;-69
2023/05/06 06:26:44;;;;;;;;;;;;;;;;;;4423343;32;19965;-69
2023/05/06 06:29:10;;;;;;;;;;;;;;;;;;4409328;32;19986;-69
2023/05/06 06:31:35;;;;;;;;;;;;;;;;;;4406573;32;19953;-69
2023/05/06 06:34:04;;;;;;;;;;;;;;;;;;4406843;32;19960;-69
2023/05/06 06:36:29;;;;;;;;;;;;;;;;;;4408133;32;19988;-69
2023/05/06 06:38:54;;;;;;;;;;;;;;;;;;4401518;32;19946;-69
2023/05/06 06:41:19;;;;;;;;;;;;;;;;;;4407231;32;19942;-70
2023/05/06 06:43:45;;;;;;;;;;;;;;;;;;4393649;32;20009;-70
2023/05/06 06:46:10;;;;;;;;;;;;;;;;;;4406361;32;19965;-71
2023/05/06 06:48:35;;;;;;;;;;;;;;;;;;4418463;32;19948;-71
2023/05/06 06:51:00;;;;;;;;;;;;;;;;;;4423058;32;19952;-69
2023/05/06 06:53:25;;;;;;;;;;;;;;;;;;4421440;32;19967;-69
2023/05/06 06:55:50;;;;;;;;;;;;;;;;;;4422445;32;20327;-70
2023/05/06 06:58:15;;;;;;;;;;;;;;;;;;4420643;32;19979;-71
2023/05/06 07:00:40;;;;;;;;;;;;;;;;;;4422921;32;19987;-70
2023/05/06 07:03:05;;;;;;;;;;;;;;;;;;4413575;32;19946;-71
2023/05/06 07:05:30;;;;;;;;;;;;;;;;;;4407803;32;19943;-70
2023/05/06 07:07:56;;;;;;;;;;;;;;;;;;4407394;32;19943;-69
2023/05/06 07:10:21;;;;;;;;;;;;;;;;;;4419168;32;19949;-71
2023/05/06 07:12:46;;;;;;;;;;;;;;;;;;4422798;32;19941;-70
2023/05/06 07:15:11;;;;;;;;;;;;;;;;;;4421062;32;19949;-69
2023/05/06 07:17:36;;;;;;;;;;;;;;;;;;4422490;32;19964;-70
2023/05/06 07:20:01;;;;;;;;;;;;;;;;;;4422763;32;19962;-69
2023/05/06 07:22:26;;;;;;;;;;;;;;;;;;4420410;32;19994;-69
2023/05/06 07:24:51;;;;;;;;;;;;;;;;;;4421269;32;19941;-70
2023/05/06 07:27:16;;;;;;;;;;;;;;;;;;4422639;32;20349;-70
2023/05/06 07:29:41;;;;;;;;;;;;;;;;;;4406964;32;19945;-70
2023/05/06 07:32:06;;;;;;;;;;;;;;;;;;4421126;32;19957;-70
2023/05/06 07:34:33;;;;;;;;;;;;;;;;;;4422550;32;19949;-70
2023/05/06 07:36:58;;;;;;;;;;;;;;;;;;4422087;32;20014;-70
2023/05/06 07:39:23;;;;;;;;;;;;;;;;;;4420935;32;20327;-69
2023/05/06 07:41:48;;;;;;;;;;;;;;;;;;4420610;32;20027;-68
2023/05/06 07:44:13;;;;;;;;;;;;;;;;;;4422586;32;19946;-70
2023/05/06 07:46:38;;;;;;;;;;;;;;;;;;4424005;32;19942;-69
2023/05/06 07:49:04;;;;;;;;;;;;;;;;;;4435798;32;20348;-68
2023/05/06 07:51:30;;;;;;;;;;;;;;;;;;4435408;32;19956;-70
2023/05/06 07:53:56;;;;;;;;;;;;;;;;;;4436041;32;19949;-69
2023/05/06 07:56:21;;;;;;;;;;;;;;;;;;4436607;32;19955;-69
2023/05/06 07:58:48;;;;;;;;;;;;;;;;;;4436058;32;19957;-68
2023/05/06 08:01:13;;;;;;;;;;;;;;;;;;4411638;32;20330;-68
2023/05/06 08:03:38;;;;;;;;;;;;;;;;;;4420790;32;20296;-69
2023/05/06 08:06:03;;;;;;;;;;;;;;;;;;4408021;32;19954;-70
2023/05/06 08:08:28;;;;;;;;;;;;;;;;;;4420617;32;19958;-70
2023/05/06 08:10:53;;;;;;;;;;;;;;;;;;4421004;32;19953;-68
2023/05/06 08:13:18;;;;;;;;;;;;;;;;;;4407939;32;19946;-70
2023/05/06 08:15:43;;;;;;;;;;;;;;;;;;4421830;32;19969;-70
2023/05/06 08:18:09;;;;;;;;;;;;;;;;;;4434697;32;19985;-69
2023/05/06 08:20:34;;;;;;;;;;;;;;;;;;4422050;32;19953;-69
2023/05/06 08:22:59;;;;;;;;;;;;;;;;;;4436564;32;20393;-69
2023/05/06 08:25:24;;;;;;;;;;;;;;;;;;4436830;32;19975;-70
2023/05/06 08:27:50;;;;;;;;;;;;;;;;;;4421952;32;20350;-70
2023/05/06 08:30:15;;;;;;;;;;;;;;;;;;4419211;32;19975;-71
2023/05/06 08:32:40;;;;;;;;;;;;;;;;;;4420986;32;19941;-69
2023/05/06 08:35:05;;;;;;;;;;;;;;;;;;4421442;32;20048;-70
2023/05/06 08:37:30;;;;;;;;;;;;;;;;;;4407279;32;19946;-70
2023/05/06 08:39:55;;;;;;;;;;;;;;;;;;4420135;32;19956;-69
2023/05/06 08:42:20;;;;;;;;;;;;;;;;;;4419538;32;19960;-70
2023/05/06 08:44:45;;;;;;;;;;;;;;;;;;4405866;32;19950;-69
2023/05/06 08:47:10;;;;;;;;;;;;;;;;;;4428219;32;19945;-70
2023/05/06 08:49:35;;;;;;;;;;;;;;;;;;4435385;32;19978;-70
2023/05/06 08:52:01;;;;;;;;;;;;;;;;;;4421169;32;20060;-69
2023/05/06 08:54:26;;;;;;;;;;;;;;;;;;4434914;32;20322;-69
2023/05/06 08:56:52;;;;;;;;;;;;;;;;;;4436486;32;19949;-69
2023/05/06 08:59:17;;;;;;;;;;;;;;;;;;4424469;32;20036;-71
2023/05/06 09:01:42;;;;;;;;;;;;;;;;;;4420376;32;20182;-71
2023/05/06 09:04:07;;;;;;;;;;;;;;;;;;4420499;32;19997;-69
2023/05/06 09:06:33;;;;;;;;;;;;;;;;;;4421072;32;19999;-69
2023/05/06 09:08:58;;;;;;;;;;;;;;;;;;4420648;32;20397;-70
2023/05/06 09:11:23;;;;;;;;;;;;;;;;;;4421367;32;19957;-70
2023/05/06 09:13:48;;;;;;;;;;;;;;;;;;4406853;32;19993;-70
2023/05/06 09:16:13;;;;;;;;;;;;;;;;;;4420006;32;20335;-70
2023/05/06 09:18:38;;;;;;;;;;;;;;;;;;4419147;32;19989;-70
2023/05/06 09:21:03;;;;;;;;;;;;;;;;;;4419438;32;19942;-70
2023/05/06 09:23:28;;;;;;;;;;;;;;;;;;4420237;32;19988;-70
2023/05/06 09:25:53;;;;;;;;;;;;;;;;;;4419560;32;19949;-72
2023/05/06 09:28:19;;;;;;;;;;;;;;;;;;4418790;32;20383;-70
2023/05/06 09:30:46;;;;;;;;;;;;;;;;;;4419500;32;19986;-71
2023/05/06 09:33:11;;;;;;;;;;;;;;;;;;4419590;32;20307;-72
2023/05/06 09:35:37;;;;;;;;;;;;;;;;;;4421397;32;20295;-70
2023/05/06 09:38:02;;;;;;;;;;;;;;;;;;4420579;32;19972;-70
2023/05/06 09:40:28;;;;;;;;;;;;;;;;;;4419942;32;20024;-68
2023/05/06 09:42:54;;;;;;;;;;;;;;;;;;4418637;32;19950;-71
2023/05/06 09:45:19;;;;;;;;;;;;;;;;;;4422116;32;20294;-70
2023/05/06 09:47:44;;;;;;;;;;;;;;;;;;4430982;32;19990;-71
2023/05/06 09:50:10;;;;;;;;;;;;;;;;;;4408197;32;19957;-70
2023/05/06 09:52:35;;;;;;;;;;;;;;;;;;4423937;32;19970;-69
2023/05/06 09:55:00;;;;;;;;;;;;;;;;;;4422344;32;20367;-70
2023/05/06 09:57:25;;;;;;;;;;;;;;;;;;4421933;32;20306;-70
2023/05/06 09:59:54;;;;;;;;;;;;;;;;;;4423389;32;19950;-69
2023/05/06 10:02:19;;;;;;;;;;;;;;;;;;4422440;32;19991;-70
2023/05/06 10:04:44;;;;;;;;;;;;;;;;;;4422240;32;19953;-70
2023/05/06 10:07:12;;;;;;;;;;;;;;;;;;4420767;32;20001;-70
2023/05/06 10:09:37;;;;;;;;;;;;;;;;;;4418384;32;20404;-70
2023/05/06 10:12:02;;;;;;;;;;;;;;;;;;4417743;32;19966;-69
2023/05/06 10:14:28;;;;;;;;;;;;;;;;;;4415694;32;19946;-69
2023/05/06 10:16:53;;;;;;;;;;;;;;;;;;4419326;32;19949;-70
2023/05/06 10:19:18;;;;;;;;;;;;;;;;;;4423470;32;19949;-70
2023/05/06 10:21:43;;;;;;;;;;;;;;;;;;4424408;32;19954;-71
2023/05/06 10:24:08;;;;;;;;;;;;;;;;;;4422640;32;19994;-69
2023/05/06 10:26:33;;;;;;;;;;;;;;;;;;4423214;32;19953;-70
2023/05/06 10:28:58;;;;;;;;;;;;;;;;;;4421540;32;20019;-70
2023/05/06 10:31:23;;;;;;;;;;;;;;;;;;4416486;32;20288;-69
2023/05/06 10:33:48;;;;;;;;;;;;;;;;;;4412320;32;20001;-69
2023/05/06 10:36:14;;;;;;;;;;;;;;;;;;4408266;32;19950;-70
2023/05/06 10:38:40;;;;;;;;;;;;;;;;;;4406285;32;19946;-69
2023/05/06 10:41:05;;;;;;;;;;;;;;;;;;4407351;32;19976;-70
2023/05/06 10:43:30;;;;;;;;;;;;;;;;;;4392200;32;20339;-69
2023/05/06 10:45:55;;;;;;;;;;;;;;;;;;4409737;32;20033;-69
2023/05/06 10:48:20;;;;;;;;;;;;;;;;;;4423399;32;19949;-70
2023/05/06 10:50:45;;;;;;;;;;;;;;;;;;4418982;32;19946;-70
2023/05/06 10:53:10;;;;;;;;;;;;;;;;;;4413299;32;19941;-70
2023/05/06 10:55:36;;;;;;;;;;;;;;;;;;4422079;32;20262;-70
2023/05/06 10:58:01;;;;;;;;;;;;;;;;;;4420920;32;20304;-70
2023/05/06 11:00:26;;;;;;;;;;;;;;;;;;4421455;32;19942;-71
2023/05/06 11:02:51;;;;;;;;;;;;;;;;;;4420591;32;19956;-70
2023/05/06 11:05:17;;;;;;;;;;;;;;;;;;4407501;32;19998;-69
2023/05/06 11:07:42;;;;;;;;;;;;;;;;;;4409002;32;19945;-69
2023/05/06 11:10:07;;;;;;;;;;;;;;;;;;4421441;32;19995;-70
2023/05/06 11:12:32;;;;;;;;;;;;;;;;;;4422814;32;19957;-70
2023/05/06 11:14:57;;;;;;;;;;;;;;;;;;4420773;32;19946;-70
2023/05/06 11:17:22;;;;;;;;;;;;;;;;;;4416836;32;19957;-70
2023/05/06 11:19:47;;;;;;;;;;;;;;;;;;4410408;32;19958;-70
2023/05/06 11:22:12;;;;;;;;;;;;;;;;;;4392353;32;20330;-70
2023/05/06 11:24:37;;;;;;;;;;;;;;;;;;4407047;32;19954;-69
2023/05/06 11:27:02;;;;;;;;;;;;;;;;;;4405386;32;19942;-69
2023/05/06 11:29:28;;;;;;;;;;;;;;;;;;4407304;32;19950;-70
2023/05/06 11:31:53;;;;;;;;;;;;;;;;;;4392329;32;19954;-69
2023/05/06 11:34:18;;;;;;;;;;;;;;;;;;4392219;32;19984;-71
2023/05/06 11:36:43;;;;;;;;;;;;;;;;;;4407515;32;20240;-70
2023/05/06 11:39:08;;;;;;;;;;;;;;;;;;4394575;32;19960;-69
2023/05/06 11:41:33;;;;;;;;;;;;;;;;;;4406685;32;19979;-69
2023/05/06 11:43:58;;;;;;;;;;;;;;;;;;4405714;32;20347;-70
2023/05/06 11:46:24;;;;;;;;;;;;;;;;;;4412389;32;19956;-70
2023/05/06 11:48:49;;;;;;;;;;;;;;;;;;4421425;32;19982;-69
2023/05/06 11:51:15;;;;;;;;;;;;;;;;;;4420313;32;20342;-70
2023/05/06 11:53:40;;;;;;;;;;;;;;;;;;4407857;32;19942;-70
2023/05/06 11:56:05;;;;;;;;;;;;;;;;;;4421852;32;19960;-70
2023/05/06 11:58:30;;;;;;;;;;;;;;;;;;4419362;32;19949;-69
2023/05/06 12:00:55;;;;;;;;;;;;;;;;;;4421319;32;19990;-70
2023/05/06 12:03:20;;;;;;;;;;;;;;;;;;4404596;32;19961;-71
2023/05/06 12:05:47;;;;;;;;;;;;;;;;;;4419502;32;20317;-70
2023/05/06 12:08:12;;;;;;;;;;;;;;;;;;4419003;32;20388;-70
2023/05/06 12:10:38;;;;;;;;;;;;;;;;;;4420896;32;19941;-71
2023/05/06 12:13:03;;;;;;;;;;;;;;;;;;4420733;32;19949;-69
2023/05/06 12:15:28;;;;;;;;;;;;;;;;;;4414299;32;19990;-69
2023/05/06 12:17:53;;;;;;;;;;;;;;;;;;4419693;32;20000;-69
2023/05/06 12:20:18;;;;;;;;;;;;;;;;;;4421755;32;20240;-68
2023/05/06 12:22:43;;;;;;;;;;;;;;;;;;4420163;32;19996;-69
2023/05/06 12:25:09;;;;;;;;;;;;;;;;;;4421525;32;19980;-69
2023/05/06 12:27:34;;;;;;;;;;;;;;;;;;4420265;32;20355;-69
2023/05/06 12:30:00;;;;;;;;;;;;;;;;;;4420587;32;19946;-69
2023/05/06 12:32:25;;;;;;;;;;;;;;;;;;4420264;32;20303;-69
2023/05/06 12:34:51;;;;;;;;;;;;;;;;;;4421389;32;19953;-70
2023/05/06 12:37:16;;;;;;;;;;;;;;;;;;4421414;32;19953;-71
2023/05/06 12:39:41;;;;;;;;;;;;;;;;;;4420216;32;19942;-70
2023/05/06 12:42:06;;;;;;;;;;;;;;;;;;4420425;32;19989;-69
2023/05/06 12:44:31;;;;;;;;;;;;;;;;;;4405939;32;19953;-68
2023/05/06 12:46:56;;;;;;;;;;;;;;;;;;4419375;32;19934;-69
2023/05/06 12:49:21;;;;;;;;;;;;;;;;;;4418939;32;19966;-69
2023/05/06 12:51:46;;;;;;;;;;;;;;;;;;4420027;32;19983;-69
2023/05/06 12:54:11;;;;;;;;;;;;;;;;;;4420124;32;20010;-69
2023/05/06 12:56:36;;;;;;;;;;;;;;;;;;4421937;32;20350;-70
2023/05/06 12:59:02;;;;;;;;;;;;;;;;;;4431958;32;19964;-69
2023/05/06 13:01:27;;;;;;;;;;;;;;;;;;4435469;32;19952;-70
2023/05/06 13:03:52;;;;;;;;;;;;;;;;;;4435306;32;19956;-70
2023/05/06 13:06:17;;;;;;;;;;;;;;;;;;4420953;32;19956;-69
2023/05/06 13:08:42;;;;;;;;;;;;;;;;;;4435065;32;19941;-69
2023/05/06 13:11:07;;;;;;;;;;;;;;;;;;4435836;32;20061;-70
2023/05/06 13:13:32;;;;;;;;;;;;;;;;;;4428774;32;19942;-70
2023/05/06 13:15:58;;;;;;;;;;;;;;;;;;4430967;32;19950;-69
2023/05/06 13:18:23;;;;;;;;;;;;;;;;;;4424471;32;20036;-69
2023/05/06 13:20:48;;;;;;;;;;;;;;;;;;4424160;32;19976;-69
2023/05/06 13:23:13;;;;;;;;;;;;;;;;;;4423564;32;20287;-68
2023/05/06 13:25:38;;;;;;;;;;;;;;;;;;4410289;32;19983;-69
2023/05/06 13:28:03;;;;;;;;;;;;;;;;;;4424631;32;20084;-69
2023/05/06 13:30:29;;;;;;;;;;;;;;;;;;4424293;32;20008;-69
2023/05/06 13:32:54;;;;;;;;;;;;;;;;;;4420773;32;19957;-69
2023/05/06 13:35:19;;;;;;;;;;;;;;;;;;4420637;32;20021;-70
2023/05/06 13:37:44;;;;;;;;;;;;;;;;;;4418707;32;19980;-70
2023/05/06 13:40:09;;;;;;;;;;;;;;;;;;4408385;32;19977;-71
2023/05/06 13:42:34;;;;;;;;;;;;;;;;;;4415216;32;19960;-70
2023/05/06 13:44:59;;;;;;;;;;;;;;;;;;4406937;32;19956;-68
2023/05/06 13:47:25;;;;;;;;;;;;;;;;;;4422408;32;19938;-68
2023/05/06 13:49:50;;;;;;;;;;;;;;;;;;4423553;32;19946;-69
2023/05/06 13:52:15;;;;;;;;;;;;;;;;;;4423923;32;19976;-69
2023/05/06 13:54:40;;;;;;;;;;;;;;;;;;4423897;32;19949;-69
2023/05/06 13:57:06;;;;;;;;;;;;;;;;;;4424378;32;20376;-69
2023/05/06 13:59:31;;;;;;;;;;;;;;;;;;4422248;32;20001;-69
2023/05/06 14:01:56;;;;;;;;;;;;;;;;;;4423010;32;20259;-69
2023/05/06 14:04:21;;;;;;;;;;;;;;;;;;4422938;32;19945;-69
2023/05/06 14:06:46;;;;;;;;;;;;;;;;;;4409735;32;19960;-69
2023/05/06 14:09:11;;;;;;;;;;;;;;;;;;4423582;32;19985;-69
2023/05/06 14:11:37;;;;;;;;;;;;;;;;;;4408048;32;19934;-69
2023/05/06 14:14:02;;;;;;;;;;;;;;;;;;4410199;32;19960;-69
2023/05/06 14:16:27;;;;;;;;;;;;;;;;;;4421950;32;19972;-70
2023/05/06 14:18:52;;;;;;;;;;;;;;;;;;4423273;32;19965;-69
2023/05/06 14:21:17;;;;;;;;;;;;;;;;;;4418715;32;20321;-69
2023/05/06 14:23:42;;;;;;;;;;;;;;;;;;4408484;32;19943;-70
2023/05/06 14:26:07;;;;;;;;;;;;;;;;;;4408447;32;19981;-71
2023/05/06 14:28:32;;;;;;;;;;;;;;;;;;4393308;32;19945;-68
2023/05/06 14:30:58;;;;;;;;;;;;;;;;;;4406707;32;20025;-68
2023/05/06 14:33:23;;;;;;;;;;;;;;;;;;4406536;32;19958;-69
2023/05/06 14:35:50;;;;;;;;;;;;;;;;;;4406179;32;19958;-70
2023/05/06 14:38:15;;;;;;;;;;;;;;;;;;4407583;32;20319;-69
2023/05/06 14:40:41;;;;;;;;;;;;;;;;;;4395201;32;20370;-69
2023/05/06 14:43:06;;;;;;;;;;;;;;;;;;4407402;32;20001;-71
2023/05/06 14:45:31;;;;;;;;;;;;;;;;;;4409368;32;19950;-69
2023/05/06 14:47:56;;;;;;;;;;;;;;;;;;4420885;32;19961;-68
2023/05/06 14:50:21;;;;;;;;;;;;;;;;;;4421371;32;19949;-69
2023/05/06 14:52:47;;;;;;;;;;;;;;;;;;4421807;32;20298;-68
2023/05/06 14:55:12;;;;;;;;;;;;;;;;;;4407726;32;19976;-68
2023/05/06 14:57:37;;;;;;;;;;;;;;;;;;4422218;32;20347;-69
2023/05/06 15:00:03;;;;;;;;;;;;;;;;;;4423451;32;19956;-69
2023/05/06 15:02:28;;;;;;;;;;;;;;;;;;4421037;32;19964;-69
2023/05/06 15:04:53;;;;;;;;;;;;;;;;;;4422111;32;19941;-70
2023/05/06 15:07:18;;;;;;;;;;;;;;;;;;4422582;32;19956;-69
2023/05/06 15:09:43;;;;;;;;;;;;;;;;;;4421291;32;19998;-69
2023/05/06 15:12:08;;;;;;;;;;;;;;;;;;4421484;32;20022;-69
2023/05/06 15:14:34;;;;;;;;;;;;;;;;;;4421519;32;19942;-69
2023/05/06 15:16:59;;;;;;;;;;;;;;;;;;4422184;32;19946;-68
2023/05/06 15:19:24;;;;;;;;;;;;;;;;;;4420142;32;19979;-69
2023/05/06 15:21:49;;;;;;;;;;;;;;;;;;4421460;32;20267;-68
2023/05/06 15:24:14;;;;;;;;;;;;;;;;;;4422630;32;19993;-68
2023/05/06 15:26:40;;;;;;;;;;;;;;;;;;4412112;32;19984;-69
2023/05/06 15:29:05;;;;;;;;;;;;;;;;;;4392484;32;19950;-70
2023/05/06 15:31:31;;;;;;;;;;;;;;;;;;4407421;32;19945;-69
2023/05/06 15:33:56;;;;;;;;;;;;;;;;;;4393610;32;20075;-69
2023/05/06 15:36:21;;;;;;;;;;;;;;;;;;4407383;32;19958;-69
2023/05/06 15:38:46;;;;;;;;;;;;;;;;;;4407307;32;19987;-69
2023/05/06 15:41:11;;;;;;;;;;;;;;;;;;4407319;32;19961;-69
2023/05/06 15:43:36;;;;;;;;;;;;;;;;;;4406409;32;19988;-69
2023/05/06 15:46:01;;;;;;;;;;;;;;;;;;4408366;32;19969;-68
2023/05/06 15:48:28;;;;;;;;;;;;;;;;;;4414704;32;19960;-69
2023/05/06 15:50:53;;;;;;;;;;;;;;;;;;4405968;32;19938;-69
2023/05/06 15:53:18;;;;;;;;;;;;;;;;;;4406822;32;19999;-69
2023/05/06 15:55:43;;;;;;;;;;;;;;;;;;4404936;32;19979;-69
2023/05/06 15:58:08;;;;;;;;;;;;;;;;;;4412852;32;20414;-69
2023/05/06 16:00:33;;;;;;;;;;;;;;;;;;4405912;32;19945;-70
2023/05/06 16:02:58;;;;;;;;;;;;;;;;;;4405328;32;19954;-69
2023/05/06 16:05:23;;;;;;;;;;;;;;;;;;4406080;32;19946;-69
2023/05/06 16:07:48;;;;;;;;;;;;;;;;;;4416710;32;19992;-69
2023/05/06 16:10:14;;;;;;;;;;;;;;;;;;4411110;32;19950;-70
2023/05/06 16:12:39;;;;;;;;;;;;;;;;;;4420487;32;19977;-69
2023/05/06 16:15:04;;;;;;;;;;;;;;;;;;4420657;32;19993;-70
2023/05/06 16:17:29;;;;;;;;;;;;;;;;;;4420728;32;19981;-69
2023/05/06 16:19:54;;;;;;;;;;;;;;;;;;4420467;32;20024;-70
2023/05/06 16:22:19;;;;;;;;;;;;;;;;;;4407603;32;19946;-69
2023/05/06 16:24:44;;;;;;;;;;;;;;;;;;4421175;32;19941;-69
2023/05/06 16:27:09;;;;;;;;;;;;;;;;;;4421732;32;19988;-69
2023/05/06 16:29:35;;;;;;;;;;;;;;;;;;4422057;32;19953;-69
2023/05/06 16:32:00;;;;;;;;;;;;;;;;;;4421975;32;19957;-68